createdAt,value
2022-10-30T00:00:17.585Z,101427.66
2022-10-30T00:02:47.758Z,101412.13
2022-10-30T00:05:16.950Z,101420.91
2022-10-30T00:07:45.932Z,101413.19
2022-10-30T00:10:14.141Z,101409.31
2022-10-30T00:12:42.459Z,101396.66
2022-10-30T00:15:11.783Z,101396.28
2022-10-30T00:17:39.509Z,101384.84
2022-10-30T00:20:08.096Z,101391.25
2022-10-30T00:22:36.618Z,101377.59
2022-10-30T00:25:04.964Z,101372.72
2022-10-30T00:27:32.400Z,101372.44
2022-10-30T00:30:00.963Z,101352.88
2022-10-30T00:32:28.743Z,101352.38
2022-10-30T00:37:41.599Z,101327.00
2022-10-30T00:40:16.324Z,101321.78
2022-10-30T00:45:28.720Z,101310.22
2022-10-30T00:48:02.013Z,101296.41
2022-10-30T00:50:31.875Z,101298.38
2022-10-30T00:53:04.939Z,101284.47
2022-10-30T00:55:59.416Z,101297.38
2022-10-30T00:58:40.645Z,101289.97
2022-10-30T01:01:14.025Z,101285.41
2022-10-30T01:03:42.261Z,101287.94
2022-10-30T01:06:17.604Z,101295.00
2022-10-30T01:08:46.571Z,101300.06
2022-10-30T01:11:14.059Z,101291.63
2022-10-30T01:13:45.419Z,101288.22
2022-10-30T01:16:40.070Z,101297.69
2022-10-30T01:31:52.873Z,101288.16
2022-10-30T01:37:30.684Z,101274.69
2022-10-30T01:40:13.710Z,101272.78
2022-10-30T01:51:39.834Z,101263.69
2022-10-30T01:54:13.198Z,101247.03
2022-10-30T01:57:25.801Z,101237.25
2022-10-30T02:00:09.567Z,101225.47
2022-10-30T02:02:37.682Z,101220.13
2022-10-30T02:05:08.931Z,101225.50
2022-10-30T02:07:37.422Z,101210.31
2022-10-30T02:10:07.013Z,101200.72
2022-10-30T02:18:05.934Z,101197.00
2022-10-30T02:20:34.859Z,101191.31
2022-10-30T02:23:03.216Z,101192.16
2022-10-30T02:25:31.136Z,101203.59
2022-10-30T02:27:59.277Z,101191.78
2022-10-30T02:30:27.345Z,101214.69
2022-10-30T02:32:55.069Z,101194.63
2022-10-30T02:35:22.872Z,101188.94
2022-10-30T02:37:50.422Z,101182.53
2022-10-30T02:40:18.293Z,101176.13
2022-10-30T02:42:52.087Z,101170.25
2022-10-30T02:45:19.991Z,101187.25
2022-10-30T02:47:47.942Z,101172.94
2022-10-30T02:53:00.925Z,101178.81
2022-10-30T02:55:29.293Z,101171.56
2022-10-30T02:57:56.869Z,101164.81
2022-10-30T03:03:09.146Z,101161.28
2022-10-30T03:05:36.702Z,101152.34
2022-10-30T03:08:04.624Z,101145.72
2022-10-30T03:13:17.057Z,101134.09
2022-10-30T03:15:45.995Z,101145.94
2022-10-30T03:21:03.942Z,101146.56
2022-10-30T03:26:19.988Z,101152.63
2022-10-30T03:28:49.435Z,101148.63
2022-10-30T03:31:18.986Z,101149.94
2022-10-30T03:33:47.329Z,101141.78
2022-10-30T03:36:15.721Z,101148.38
2022-10-30T03:38:43.839Z,101140.13
2022-10-30T03:41:11.390Z,101140.66
2022-10-30T03:43:39.617Z,101133.03
2022-10-30T03:46:07.591Z,101144.94
2022-10-30T03:48:36.113Z,101137.25
2022-10-30T03:51:04.121Z,101140.38
2022-10-30T03:53:31.906Z,101140.69
2022-10-30T03:56:02.098Z,101134.38
2022-10-30T04:04:00.582Z,101140.50
2022-10-30T04:06:28.391Z,101120.81
2022-10-30T04:08:56.005Z,101125.00
2022-10-30T04:11:24.167Z,101143.03
2022-10-30T04:13:53.026Z,101118.94
2022-10-30T04:16:21.153Z,101116.06
2022-10-30T04:18:48.669Z,101118.03
2022-10-30T04:21:17.353Z,101115.88
2022-10-30T04:23:44.827Z,101125.09
2022-10-30T04:28:58.249Z,101138.56
2022-10-30T04:31:26.164Z,101131.72
2022-10-30T04:36:38.809Z,101134.41
2022-10-30T04:41:51.435Z,101132.78
2022-10-30T04:44:18.900Z,101133.97
2022-10-30T04:46:46.338Z,101134.25
2022-10-30T04:49:13.803Z,101140.34
2022-10-30T04:51:42.708Z,101121.69
2022-10-30T04:59:40.327Z,101140.09
2022-10-30T05:02:08.211Z,101130.66
2022-10-30T05:04:36.290Z,101135.91
2022-10-30T05:07:03.928Z,101133.88
2022-10-30T05:09:31.490Z,101132.19
2022-10-30T05:12:00.270Z,101132.19
2022-10-30T05:14:32.950Z,101131.75
2022-10-30T05:17:01.039Z,101140.09
2022-10-30T05:19:28.619Z,101137.41
2022-10-30T05:21:56.242Z,101139.56
2022-10-30T05:24:24.459Z,101136.69
2022-10-30T05:26:52.426Z,101133.88
2022-10-30T05:29:22.123Z,101134.72
2022-10-30T05:31:50.278Z,101137.97
2022-10-30T05:34:18.044Z,101146.13
2022-10-30T05:36:45.865Z,101127.88
2022-10-30T05:39:13.325Z,101131.81
2022-10-30T05:41:40.915Z,101136.34
2022-10-30T05:44:09.701Z,101135.97
2022-10-30T05:46:38.143Z,101128.72
2022-10-30T05:49:06.296Z,101140.72
2022-10-30T05:54:19.056Z,101135.75
2022-10-30T05:56:47.290Z,101132.38
2022-10-30T05:59:17.713Z,101125.97
2022-10-30T06:04:15.025Z,101135.56
2022-10-30T06:06:42.919Z,101136.03
2022-10-30T06:09:14.593Z,101132.69
2022-10-30T06:11:42.748Z,101148.78
2022-10-30T06:16:56.680Z,101146.22
2022-10-30T06:19:24.492Z,101150.97
2022-10-30T06:21:52.342Z,101136.47
2022-10-30T06:24:21.272Z,101135.75
2022-10-30T06:26:49.791Z,101119.28
2022-10-30T06:34:49.559Z,101120.28
2022-10-30T06:37:17.338Z,101110.63
2022-10-30T06:39:45.397Z,101139.41
2022-10-30T06:42:13.407Z,101158.78
2022-10-30T06:44:43.376Z,101160.44
2022-10-30T06:47:11.712Z,101160.91
2022-10-30T06:49:39.299Z,101158.13
2022-10-30T06:52:06.974Z,101158.69
2022-10-30T06:54:35.401Z,101153.47
2022-10-30T06:57:03.007Z,101154.13
2022-10-30T06:59:31.169Z,101148.81
2022-10-30T07:04:48.777Z,101139.97
2022-10-30T07:07:17.237Z,101141.44
2022-10-30T07:09:48.306Z,101122.84
2022-10-30T07:12:17.136Z,101110.28
2022-10-30T07:17:31.259Z,101107.41
2022-10-30T07:20:00.136Z,101126.84
2022-10-30T07:25:16.129Z,101137.56
2022-10-30T07:27:46.165Z,101134.13
2022-10-30T07:30:18.172Z,101116.28
2022-10-30T07:32:58.414Z,101107.53
2022-10-30T07:35:26.882Z,101101.94
2022-10-30T07:37:55.214Z,101096.53
2022-10-30T07:40:23.559Z,101113.81
2022-10-30T07:45:47.162Z,101128.50
2022-10-30T07:48:15.677Z,101118.66
2022-10-30T07:50:44.351Z,101118.97
2022-10-30T07:53:12.387Z,101115.69
2022-10-30T07:55:40.646Z,101122.41
2022-10-30T07:58:08.494Z,101117.66
2022-10-30T08:00:36.225Z,101126.59
2022-10-30T08:03:04.014Z,101124.06
2022-10-30T08:08:17.602Z,101122.03
2022-10-30T08:10:46.316Z,101123.41
2022-10-30T08:13:15.280Z,101119.88
2022-10-30T08:15:44.853Z,101125.63
2022-10-30T08:18:13.642Z,101131.44
2022-10-30T08:23:19.942Z,101137.69
2022-10-30T08:28:35.584Z,101128.34
2022-10-30T08:36:36.563Z,101156.09
2022-10-30T08:39:08.450Z,101155.09
2022-10-30T08:41:38.467Z,101152.84
2022-10-30T08:44:06.952Z,101157.31
2022-10-30T08:46:34.742Z,101171.06
2022-10-30T08:49:03.493Z,101163.38
2022-10-30T08:57:05.651Z,101166.25
2022-10-30T08:59:33.706Z,101159.44
2022-10-30T09:02:02.358Z,101152.19
2022-10-30T09:04:31.638Z,101150.75
2022-10-30T09:07:02.717Z,101150.03
2022-10-30T09:09:31.070Z,101147.88
2022-10-30T09:11:59.231Z,101143.47
2022-10-30T09:14:27.201Z,101142.91
2022-10-30T09:19:42.532Z,101146.66
2022-10-30T09:24:56.702Z,101141.16
2022-10-30T09:33:03.013Z,101131.75
2022-10-30T09:35:33.729Z,101124.47
2022-10-30T09:38:01.926Z,101123.63
2022-10-30T09:40:50.455Z,101128.00
2022-10-30T09:43:50.875Z,101132.00
2022-10-30T09:46:47.866Z,101136.13
2022-10-30T09:49:34.752Z,101129.47
2022-10-30T09:52:35.750Z,101125.34
2022-10-30T09:58:37.121Z,101139.56
2022-10-30T10:01:17.787Z,101124.59
2022-10-30T10:04:20.913Z,101130.84
2022-10-30T10:07:02.477Z,101135.81
2022-10-30T10:09:35.081Z,101129.13
2022-10-30T10:12:14.398Z,101129.09
2022-10-30T10:14:46.860Z,101130.81
2022-10-30T10:17:24.832Z,101123.66
2022-10-30T10:19:59.875Z,101121.94
2022-10-30T10:22:41.355Z,101114.25
2022-10-30T10:25:16.195Z,101105.72
2022-10-30T10:28:21.674Z,101106.19
2022-10-30T10:31:28.204Z,101115.41
2022-10-30T10:37:48.933Z,101106.28
2022-10-30T10:40:31.909Z,101105.00
2022-10-30T10:43:07.132Z,101100.84
2022-10-30T10:46:40.471Z,101090.00
2022-10-30T10:52:05.607Z,101089.53
2022-10-30T10:54:46.912Z,101083.56
2022-10-30T10:57:27.795Z,101086.22
2022-10-30T11:00:04.442Z,101082.91
2022-10-30T11:02:44.907Z,101081.66
2022-10-30T11:05:21.207Z,101087.06
2022-10-30T11:07:52.306Z,101073.50
2022-10-30T11:10:21.286Z,101074.56
2022-10-30T11:12:50.706Z,101072.06
2022-10-30T11:15:22.927Z,101076.59
2022-10-30T11:18:10.881Z,101079.53
2022-10-30T11:20:38.781Z,101081.22
2022-10-30T11:23:31.208Z,101064.75
2022-10-30T11:29:13.129Z,101063.28
2022-10-30T11:34:39.198Z,101070.16
2022-10-30T11:37:30.531Z,101068.25
2022-10-30T11:40:26.814Z,101058.25
2022-10-30T11:45:47.651Z,101063.84
2022-10-30T11:48:24.188Z,101057.19
2022-10-30T11:50:59.873Z,101049.91
2022-10-30T11:53:35.024Z,101052.84
2022-10-30T11:56:12.937Z,101048.22
2022-10-30T11:58:45.643Z,101059.50
2022-10-30T12:01:24.294Z,101069.06
2022-10-30T12:03:54.766Z,101067.56
2022-10-30T12:06:30.291Z,101073.63
2022-10-30T12:09:23.552Z,101063.63
2022-10-30T12:11:52.321Z,101081.09
2022-10-30T12:14:27.246Z,101080.72
2022-10-30T12:22:38.991Z,101075.50
2022-10-30T12:25:24.007Z,101082.38
2022-10-30T12:28:01.176Z,101074.03
2022-10-30T12:30:34.671Z,101072.41
2022-10-30T12:33:09.318Z,101072.66
2022-10-30T12:35:49.415Z,101069.56
2022-10-30T12:38:59.193Z,101076.66
2022-10-30T12:41:33.717Z,101085.06
2022-10-30T12:44:12.345Z,101081.34
2022-10-30T12:46:49.224Z,101080.47
2022-10-30T12:52:23.115Z,101081.19
2022-10-30T12:54:56.688Z,101076.06
2022-10-30T12:57:33.849Z,101079.75
2022-10-30T13:00:16.200Z,101069.22
2022-10-30T13:06:02.911Z,101073.59
2022-10-30T13:09:09.547Z,101074.31
2022-10-30T13:11:56.483Z,101069.16
2022-10-30T13:14:40.749Z,101077.53
2022-10-30T13:17:14.554Z,101072.53
2022-10-30T13:19:48.422Z,101070.88
2022-10-30T13:22:30.132Z,101077.34
2022-10-30T13:28:24.296Z,101079.41
2022-10-30T13:31:05.110Z,101081.25
2022-10-30T13:33:59.389Z,101074.97
2022-10-30T13:39:49.585Z,101071.16
2022-10-30T13:45:38.114Z,101075.41
2022-10-30T13:48:28.259Z,101080.38
2022-10-30T13:51:22.033Z,101086.06
2022-10-30T13:54:20.118Z,101094.13
2022-10-30T13:56:50.506Z,101096.19
2022-10-30T14:02:50.365Z,101090.66
2022-10-30T14:05:32.017Z,101086.81
2022-10-30T14:08:26.231Z,101090.34
2022-10-30T14:11:06.621Z,101082.22
2022-10-30T14:16:36.215Z,101079.69
2022-10-30T14:19:15.575Z,101082.75
2022-10-30T14:21:56.752Z,101079.91
2022-10-30T14:24:37.721Z,101086.56
2022-10-30T14:30:20.749Z,101081.53
2022-10-30T14:32:52.947Z,101082.31
2022-10-30T14:36:07.943Z,101086.88
2022-10-30T14:38:38.752Z,101087.13
2022-10-30T14:41:26.461Z,101093.13
2022-10-30T14:44:11.897Z,101096.19
2022-10-30T14:47:06.120Z,101094.34
2022-10-30T14:52:38.939Z,101091.03
2022-10-30T14:55:28.899Z,101088.31
2022-10-30T14:58:02.792Z,101095.06
2022-10-30T15:00:36.438Z,101096.72
2022-10-30T15:03:07.586Z,101091.03
2022-10-30T15:05:56.564Z,101102.44
2022-10-30T15:11:47.875Z,101100.28
2022-10-30T15:14:52.698Z,101091.06
2022-10-30T15:17:29.127Z,101101.03
2022-10-30T15:20:02.853Z,101091.91
2022-10-30T15:25:23.270Z,101099.00
2022-10-30T15:27:59.101Z,101101.00
2022-10-30T15:33:27.195Z,101099.97
2022-10-30T15:36:00.365Z,101106.22
2022-10-30T15:38:29.725Z,101103.50
2022-10-30T15:41:09.863Z,101106.31
2022-10-30T15:43:47.465Z,101105.47
2022-10-30T15:46:26.089Z,101111.53
2022-10-30T15:48:54.360Z,101109.28
2022-10-30T15:51:28.307Z,101112.72
2022-10-30T15:54:15.872Z,101108.34
2022-10-30T15:57:21.493Z,101101.69
2022-10-30T15:59:38.842Z,101102.19
2022-10-30T16:02:26.127Z,101104.81
2022-10-30T16:04:54.852Z,101105.41
2022-10-30T16:07:28.155Z,101108.28
2022-10-30T16:12:49.079Z,101110.91
2022-10-30T16:15:30.642Z,101110.53
2022-10-30T16:18:30.753Z,101116.06
2022-10-30T16:21:10.775Z,101112.34
2022-10-30T16:26:40.070Z,101111.28
2022-10-30T16:29:25.722Z,101113.06
2022-10-30T16:31:54.851Z,101118.84
2022-10-30T16:34:37.974Z,101119.38
2022-10-30T16:40:05.816Z,101110.84
2022-10-30T16:42:35.865Z,101110.47
2022-10-30T16:45:35.291Z,101110.09
2022-10-30T16:50:46.024Z,101102.66
2022-10-30T16:53:26.174Z,101107.75
2022-10-30T16:59:02.575Z,101111.69
2022-10-30T17:01:34.522Z,101111.88
2022-10-30T17:04:06.986Z,101106.19
2022-10-30T17:09:34.163Z,101100.16
2022-10-30T17:12:18.920Z,101103.78
2022-10-30T17:18:17.434Z,101103.00
2022-10-30T17:20:45.663Z,101097.72
2022-10-30T17:23:32.464Z,101091.38
2022-10-30T17:28:58.313Z,101079.31
2022-10-30T17:31:39.493Z,101082.03
2022-10-30T17:45:51.071Z,101073.09
2022-10-30T17:51:29.968Z,101053.44
2022-10-30T17:56:46.496Z,101055.78
2022-10-30T17:59:26.520Z,101050.56
2022-10-30T18:01:56.740Z,101060.34
2022-10-30T18:07:15.694Z,101076.25
2022-10-30T18:09:44.897Z,101079.94
2022-10-30T18:12:15.939Z,101082.22
2022-10-30T18:14:46.249Z,101073.94
2022-10-30T18:20:09.908Z,101063.03
2022-10-30T18:25:34.021Z,101063.03
2022-10-30T18:28:03.866Z,101067.97
2022-10-30T18:33:15.365Z,101075.69
2022-10-30T18:35:43.413Z,101079.59
2022-10-30T18:38:12.752Z,101080.91
2022-10-30T18:43:32.739Z,101085.09
2022-10-30T18:46:02.077Z,101086.31
2022-10-30T18:51:24.418Z,101083.22
2022-10-30T18:53:52.809Z,101082.22
2022-10-30T18:56:24.821Z,101078.09
2022-10-30T18:59:00.714Z,101082.22
2022-10-30T19:04:22.626Z,101075.50
2022-10-30T19:06:53.266Z,101086.31
2022-10-30T19:09:21.312Z,101084.63
2022-10-30T19:11:49.446Z,101086.78
2022-10-30T19:14:17.759Z,101087.69
2022-10-30T19:16:47.090Z,101091.97
2022-10-30T19:19:16.571Z,101090.31
2022-10-30T19:21:45.902Z,101096.97
2022-10-30T19:24:18.018Z,101100.69
2022-10-30T19:32:21.369Z,101089.47
2022-10-30T19:40:27.440Z,101078.09
2022-10-30T19:42:55.761Z,101076.41
2022-10-30T19:45:30.210Z,101076.78
2022-10-30T19:48:01.651Z,101071.50
2022-10-30T19:50:38.961Z,101076.41
2022-10-30T19:53:08.723Z,101074.38
2022-10-30T19:55:39.843Z,101067.00
2022-10-30T19:58:14.290Z,101064.69
2022-10-30T20:03:30.274Z,101058.72
2022-10-30T20:08:44.657Z,101057.13
2022-10-30T20:11:13.279Z,101062.25
2022-10-30T20:13:41.101Z,101060.38
2022-10-30T20:21:38.659Z,101056.47
2022-10-30T20:24:07.629Z,101052.50
2022-10-30T20:26:38.749Z,101052.00
2022-10-30T20:29:08.802Z,101060.47
2022-10-30T20:34:21.482Z,101045.00
2022-10-30T20:39:36.166Z,101032.94
2022-10-30T20:44:50.936Z,101034.78
2022-10-30T20:47:19.479Z,101032.94
2022-10-30T20:49:52.805Z,101026.53
2022-10-30T20:52:22.153Z,101028.56
2022-10-30T20:54:50.388Z,101024.84
2022-10-30T20:57:18.650Z,101015.75
2022-10-30T20:59:47.286Z,101024.19
2022-10-30T21:02:15.883Z,101027.81
2022-10-30T21:04:44.152Z,101025.13
2022-10-30T21:07:11.993Z,101022.16
2022-10-30T21:12:29.602Z,101024.09
2022-10-30T21:17:46.294Z,101015.94
2022-10-30T21:20:17.204Z,101005.03
2022-10-30T21:28:26.631Z,101014.81
2022-10-30T21:30:56.807Z,101001.63
2022-10-30T21:33:27.279Z,101002.16
2022-10-30T21:35:56.938Z,101003.47
2022-10-30T21:41:12.874Z,101000.19
2022-10-30T21:43:40.858Z,101000.13
2022-10-30T21:46:12.148Z,101000.31
2022-10-30T21:48:40.893Z,100998.44
2022-10-30T21:51:18.468Z,101006.63
2022-10-30T21:53:47.686Z,100997.63
2022-10-30T21:59:07.373Z,100994.25
2022-10-30T22:01:39.785Z,100996.41
2022-10-30T22:04:09.830Z,101000.50
2022-10-30T22:06:42.850Z,100981.06
2022-10-30T22:09:11.215Z,100979.56
2022-10-30T22:11:42.861Z,100971.50
2022-10-30T22:14:12.006Z,100973.88
2022-10-30T22:16:40.792Z,100980.88
2022-10-30T22:19:11.656Z,100976.78
2022-10-30T22:21:39.672Z,100972.22
2022-10-30T22:26:53.276Z,100975.66
2022-10-30T22:29:24.420Z,100963.69
2022-10-30T22:31:57.338Z,100977.34
2022-10-30T22:34:26.751Z,100966.38
2022-10-30T22:36:55.948Z,100971.47
2022-10-30T22:39:24.417Z,100965.72
2022-10-30T23:00:52.852Z,100959.31
2022-10-30T23:03:20.557Z,100939.16
2022-10-30T23:05:59.631Z,100950.31
2022-10-30T23:08:28.271Z,100948.63
2022-10-30T23:10:59.071Z,100944.34
2022-10-30T23:13:32.687Z,100940.72
2022-10-30T23:16:09.932Z,100944.63
2022-10-30T23:18:38.828Z,100939.59
2022-10-30T23:21:14.692Z,100933.16
2022-10-30T23:23:44.115Z,100925.72
2022-10-30T23:26:14.962Z,100928.59
2022-10-30T23:28:43.242Z,100935.00
2022-10-30T23:31:19.916Z,100927.50
2022-10-30T23:33:49.701Z,100920.34
2022-10-30T23:36:18.723Z,100914.47
2022-10-30T23:39:04.309Z,100910.41
2022-10-30T23:41:34.946Z,100907.78
2022-10-30T23:44:08.802Z,100902.78
2022-10-30T23:46:37.703Z,100898.69
2022-10-30T23:49:06.251Z,100906.72
2022-10-30T23:51:34.391Z,100897.13
2022-10-30T23:54:04.184Z,100888.31
2022-10-30T23:56:32.779Z,100888.41
2022-10-30T23:59:01.234Z,100885.16
